Time;durP1;ratioP1;P1;durP2;ratioP2;P2;SDS_P1;SDS_P2;PMS_P1;PMS_P2;Temp;Humidity;BMP_temperature;BMP_pressure;BME280_temperature;BME280_humidity;BME280_pressure;Samples;Min_cycle;Max_cycle;Signal;HPM_P1;HPM_P2
2022/09/17 00:00:59;;;;;;;2.28;0.85;;;;;;;11.81;84.33;99008.00;2064520;28;20050;-84
2022/09/17 00:02:05;;;;;;;;;;;;;;;11.79;84.61;98995.97;2065084;28;20847;-83
2022/09/17 00:03:12;;;;;;;0.98;0.50;;;;;;;11.79;84.85;99004.03;2072940;28;19940;-82
2022/09/17 00:04:14;;;;;;;1.00;0.55;;;;;;;11.83;84.54;99005.78;2079273;28;20044;-82
2022/09/17 00:05:19;;;;;;;0.60;0.50;;;;;;;11.86;84.71;99008.97;2071580;28;20053;-82
2022/09/17 00:06:24;;;;;;;2.53;0.55;;;;;;;11.82;84.67;99006.91;2063940;28;20403;-82
2022/09/17 00:07:38;;;;;;;3.60;0.90;;;;;;;11.84;84.84;99006.56;2064366;28;20050;-82
2022/09/17 00:08:45;;;;;;;2.10;0.90;;;;;;;11.81;84.63;98997.22;2071752;28;20579;-83
2022/09/17 00:09:48;;;;;;;0.85;0.50;;;;;;;11.70;84.47;99004.09;2071623;28;20050;-83
2022/09/17 00:10:50;;;;;;;1.77;0.73;;;;;;;11.74;84.95;99006.94;2063984;28;20297;-83
2022/09/17 00:11:53;;;;;;;3.13;0.75;;;;;;;11.77;84.89;99009.75;2063718;28;20034;-80
2022/09/17 00:12:58;;;;;;;1.88;0.60;;;;;;;11.78;84.85;99008.63;2071815;28;20042;-81
2022/09/17 00:14:06;;;;;;;1.00;0.60;;;;;;;11.82;84.95;99009.59;2075085;28;20041;-79
2022/09/17 00:15:09;;;;;;;3.53;0.68;;;;;;;11.82;84.98;99003.38;2063610;28;20533;-78
2022/09/17 00:16:11;;;;;;;1.45;0.95;;;;;;;11.89;85.01;99013.72;2064109;28;20053;-79
2022/09/17 00:17:14;;;;;;;2.67;0.60;;;;;;;11.87;84.67;99013.22;2071837;28;20125;-79
2022/09/17 00:18:15;;;;;;;2.88;0.50;;;;;;;11.85;84.81;99012.75;2071510;28;20041;-79
2022/09/17 00:19:22;;;;;;;2.13;0.50;;;;;;;11.86;84.69;99011.66;2071474;28;20057;-79
2022/09/17 00:20:25;;;;;;;0.75;0.60;;;;;;;11.89;84.69;99019.09;2063375;28;20061;-79
2022/09/17 00:21:28;;;;;;;2.60;0.40;;;;;;;11.81;84.64;99016.06;2047703;28;20050;-79
2022/09/17 00:22:34;;;;;;;1.52;0.50;;;;;;;11.87;84.76;99016.72;2048735;28;20050;-79
2022/09/17 00:23:41;;;;;;;1.85;0.60;;;;;;;11.80;84.65;99006.41;2055987;28;20050;-79
2022/09/17 00:24:43;;;;;;;1.85;0.50;;;;;;;11.77;85.22;99017.84;2057140;28;20387;-77
2022/09/17 00:25:46;;;;;;;1.38;0.60;;;;;;;11.80;84.90;99021.78;2063516;28;20045;-76
2022/09/17 00:26:49;;;;;;;2.90;0.80;;;;;;;11.76;85.04;99021.66;2055391;28;20043;-77
2022/09/17 00:27:56;;;;;;;1.13;0.60;;;;;;;11.74;85.43;99018.47;2063727;28;20366;-77
2022/09/17 00:29:02;;;;;;;0.50;0.50;;;;;;;11.77;85.40;99020.53;2063304;28;20331;-76
2022/09/17 00:30:08;;;;;;;2.30;0.75;;;;;;;11.77;85.44;99023.22;2055891;28;20483;-76
2022/09/17 00:31:15;;;;;;;1.27;0.52;;;;;;;11.80;85.26;99019.88;2050427;28;20036;-76
2022/09/17 00:32:20;;;;;;;1.60;0.65;;;;;;;11.81;85.48;99023.34;2063929;28;20069;-77
2022/09/17 00:33:27;;;;;;;1.90;0.60;;;;;;;11.75;85.77;99022.75;2070605;28;20041;-77
2022/09/17 00:34:35;;;;;;;1.77;0.70;;;;;;;11.78;85.66;99030.19;2063310;28;20046;-79
2022/09/17 00:35:40;;;;;;;0.88;0.50;;;;;;;11.85;85.72;99026.22;2070296;28;20053;-76
2022/09/17 00:36:42;;;;;;;0.82;0.40;;;;;;;11.80;85.92;99038.72;2065210;28;20076;-76
2022/09/17 00:37:46;;;;;;;1.65;0.43;;;;;;;11.83;85.67;99034.59;2047834;28;20520;-77
2022/09/17 00:39:01;;;;;;;2.15;0.60;;;;;;;11.81;85.59;99034.91;2049595;28;20286;-75
2022/09/17 00:40:09;;;;;;;5.75;0.70;;;;;;;11.78;86.00;99038.25;2065648;28;20503;-79
2022/09/17 00:41:14;;;;;;;1.85;0.60;;;;;;;11.80;86.28;99036.03;2064267;28;20042;-78
2022/09/17 00:42:19;;;;;;;2.45;0.60;;;;;;;11.83;85.94;99037.31;2047903;28;20051;-77
2022/09/17 00:43:45;;;;;;;2.97;0.40;;;;;;;11.82;85.89;99049.97;2057469;28;20522;-77
2022/09/17 00:44:54;;;;;;;1.13;0.63;;;;;;;11.86;85.98;99052.06;2071339;28;20041;-76
2022/09/17 00:46:06;;;;;;;2.60;0.60;;;;;;;11.85;86.10;99045.06;2073203;28;20057;-77
2022/09/17 00:47:22;;;;;;;1.27;0.60;;;;;;;11.79;86.04;99045.25;2075121;28;20743;-77
2022/09/17 00:48:27;;;;;;;1.65;0.50;;;;;;;11.83;86.06;99051.56;2064216;28;20406;-76
2022/09/17 00:49:33;;;;;;;2.55;0.60;;;;;;;11.85;86.29;99053.94;2063243;28;20045;-77
2022/09/17 00:50:44;;;;;;;5.20;0.60;;;;;;;11.85;86.29;99055.84;2070754;28;20410;-79
2022/09/17 00:52:08;;;;;;;0.82;0.50;;;;;;;11.88;86.11;99049.81;2071436;28;20041;-78
2022/09/17 00:53:14;;;;;;;0.55;0.55;;;;;;;11.82;86.18;99052.66;2066371;28;20061;-76
2022/09/17 00:54:19;;;;;;;3.05;0.70;;;;;;;11.85;86.36;99055.84;2056176;28;20058;-76
2022/09/17 00:55:32;;;;;;;0.90;0.43;;;;;;;11.87;86.03;99054.41;2048626;28;20526;-79
2022/09/17 00:56:37;;;;;;;0.70;0.47;;;;;;;11.91;86.02;99055.34;2056985;28;20580;-77
2022/09/17 00:57:45;;;;;;;1.50;0.85;;;;;;;11.93;85.94;99047.72;2060527;28;20557;-76
2022/09/17 00:58:47;;;;;;;4.60;0.50;;;;;;;11.95;85.96;99042.81;2063505;28;20620;-77
2022/09/17 00:59:55;;;;;;;0.60;0.40;;;;;;;11.88;86.02;99047.13;2070800;28;20049;-76
2022/09/17 01:00:58;;;;;;;1.10;0.52;;;;;;;11.90;85.97;99047.59;2071586;28;20383;-77
2022/09/17 01:02:01;;;;;;;1.02;0.50;;;;;;;11.93;85.88;99038.88;2063139;28;20038;-76
2022/09/17 01:03:08;;;;;;;4.97;0.50;;;;;;;11.85;86.23;99045.84;2070821;28;20057;-76
2022/09/17 01:04:21;;;;;;;0.57;0.50;;;;;;;11.89;86.07;99048.72;2062463;28;20034;-79
2022/09/17 01:06:01;;;;;;;2.40;0.98;;;;;;;11.92;86.17;99056.16;2057649;28;20422;-77
2022/09/17 01:07:21;;;;;;;1.13;0.43;;;;;;;11.94;86.23;99045.81;2051618;28;21222;-76
2022/09/17 01:08:47;;;;;;;2.70;0.50;;;;;;;11.97;85.91;99042.47;2064032;28;20405;-76
2022/09/17 01:09:51;;;;;;;2.10;0.57;;;;;;;11.97;85.84;99040.56;2077452;28;20041;-76
2022/09/17 01:11:41;;;;;;;1.23;0.50;;;;;;;12.00;85.93;99033.75;2078054;28;20025;-77
2022/09/17 01:13:09;;;;;;;2.35;0.50;;;;;;;11.98;85.91;99033.28;2058189;28;20077;-77
2022/09/17 01:14:30;;;;;;;1.98;0.57;;;;;;;11.90;86.03;99034.13;2070813;28;20053;-78
2022/09/17 01:15:44;;;;;;;0.68;0.43;;;;;;;11.92;86.29;99040.00;2063919;28;20289;-77
2022/09/17 01:16:54;;;;;;;0.32;0.32;;;;;;;11.93;86.16;99030.78;2066795;28;20058;-77
2022/09/17 01:18:13;;;;;;;1.95;0.50;;;;;;;11.91;86.11;99036.50;2072268;28;20049;-77
2022/09/17 01:19:39;;;;;;;2.90;0.80;;;;;;;11.95;86.19;99033.97;2059061;28;20046;-77
2022/09/17 01:21:13;;;;;;;2.08;0.80;;;;;;;11.97;86.31;99034.41;2068869;28;20049;-76
2022/09/17 01:22:21;;;;;;;3.22;0.45;;;;;;;11.99;86.34;99026.81;2064779;28;20057;-79
2022/09/17 01:24:01;;;;;;;0.98;0.40;;;;;;;12.00;86.26;99026.47;2057211;28;20038;-79
2022/09/17 01:25:23;;;;;;;3.05;0.80;;;;;;;12.03;86.39;99019.63;2064634;28;20053;-79
2022/09/17 01:26:57;;;;;;;1.10;0.68;;;;;;;12.04;86.38;99021.22;2064861;28;20054;-77
2022/09/17 01:28:24;;;;;;;0.73;0.63;;;;;;;11.99;86.52;99018.72;2056723;28;20054;-77
2022/09/17 01:29:45;;;;;;;2.15;0.35;;;;;;;11.95;86.81;99021.28;2059911;28;20042;-77
2022/09/17 01:30:50;;;;;;;1.80;0.60;;;;;;;12.00;86.40;99025.69;2064980;28;20077;-82
2022/09/17 01:32:08;;;;;;;1.40;0.50;;;;;;;11.98;86.64;99022.50;2072446;28;20034;-82
2022/09/17 01:33:36;;;;;;;1.48;0.40;;;;;;;11.99;86.59;99030.28;2064948;28;20418;-82
2022/09/17 01:34:48;;;;;;;1.88;0.50;;;;;;;11.97;86.88;99026.31;2064531;28;20498;-82
2022/09/17 01:35:58;;;;;;;;;;;;;;;11.98;86.70;99025.19;2074805;28;20034;-82
2022/09/17 01:37:13;;;;;;;0.90;0.50;;;;;;;11.95;86.92;99031.25;2073843;28;19925;-79
2022/09/17 01:38:40;;;;;;;1.10;0.30;;;;;;;11.96;86.86;99027.44;2081286;28;20037;-82
2022/09/17 01:40:13;;;;;;;1.27;0.40;;;;;;;11.98;86.83;99033.28;2077536;28;20080;-80
2022/09/17 01:41:25;;;;;;;0.88;0.50;;;;;;;11.83;87.57;99027.31;2072561;28;20042;-79
2022/09/17 01:42:53;;;;;;;0.88;0.40;;;;;;;11.79;87.55;99026.38;2072790;28;20046;-80
2022/09/17 01:44:23;;;;;;;1.92;0.50;;;;;;;11.85;87.42;99035.09;2072443;28;20684;-79
2022/09/17 01:45:32;;;;;;;2.40;0.43;;;;;;;11.88;87.27;99029.06;2041435;28;20529;-79
2022/09/17 01:46:52;;;;;;;0.70;0.30;;;;;;;11.86;87.32;99025.13;2052252;28;20526;-80
2022/09/17 01:48:24;;;;;;;2.63;0.60;;;;;;;11.90;87.24;99036.81;2067146;28;20061;-80
2022/09/17 01:49:26;;;;;;;1.05;0.47;;;;;;;11.90;87.24;99032.22;2064737;28;20034;-79
2022/09/17 01:50:32;;;;;;;1.15;0.38;;;;;;;11.93;87.19;99041.56;2064461;28;20046;-79
2022/09/17 01:51:45;;;;;;;3.30;0.60;;;;;;;11.93;86.93;99034.28;2065151;28;20065;-79
2022/09/17 01:52:55;;;;;;;1.42;0.30;;;;;;;11.94;87.13;99029.66;2066549;28;20057;-79
2022/09/17 01:54:03;;;;;;;0.75;0.40;;;;;;;11.95;87.23;99032.06;2066378;28;20066;-80
2022/09/17 01:55:10;;;;;;;3.85;0.40;;;;;;;11.95;87.12;99032.06;2048461;29;20054;-80
2022/09/17 01:56:18;;;;;;;0.30;0.30;;;;;;;11.86;87.52;99031.28;2042660;28;20102;-80
2022/09/17 01:57:32;;;;;;;0.93;0.38;;;;;;;11.92;87.32;99040.00;2059597;28;20039;-80
2022/09/17 01:58:43;;;;;;;2.75;0.50;;;;;;;11.96;87.10;99040.91;2065971;28;20046;-80
2022/09/17 01:59:44;;;;;;;2.10;0.40;;;;;;;11.94;87.32;99043.91;2064659;28;20407;-79
2022/09/17 02:00:51;;;;;;;0.55;0.45;;;;;;;11.95;87.20;99040.13;2064476;28;20034;-81
2022/09/17 02:01:59;;;;;;;0.73;0.40;;;;;;;11.98;87.30;99046.75;2071028;28;20056;-79
2022/09/17 02:03:09;;;;;;;1.08;0.40;;;;;;;11.93;87.24;99053.13;2072651;28;20042;-79
2022/09/17 02:04:18;;;;;;;;;;;;;;;11.93;87.06;99047.72;2064847;28;20046;-78
2022/09/17 02:05:44;;;;;;;0.68;0.20;;;;;;;11.90;87.06;99052.97;2061768;28;19913;-77
2022/09/17 02:06:56;;;;;;;1.73;0.40;;;;;;;11.95;87.12;99047.44;2069184;28;20545;-78
2022/09/17 02:08:13;;;;;;;1.13;0.32;;;;;;;11.92;87.25;99050.75;2073541;28;20053;-79
2022/09/17 02:09:42;;;;;;;1.02;0.47;;;;;;;11.90;87.40;99042.22;2072377;28;20509;-77
2022/09/17 02:10:51;;;;;;;0.30;0.20;;;;;;;11.91;87.40;99054.56;2066780;28;20144;-79
2022/09/17 02:11:57;;;;;;;;;;;;;;;11.93;87.25;99041.56;2065541;28;20066;-80
2022/09/17 02:13:09;;;;;;;2.03;0.40;;;;;;;11.90;87.02;99052.97;2065136;28;19917;-76
2022/09/17 02:14:17;;;;;;;1.33;0.30;;;;;;;11.87;87.07;99045.56;2056433;28;20053;-76
2022/09/17 02:15:25;;;;;;;0.73;0.35;;;;;;;11.88;86.72;99052.50;2058045;28;20508;-76
2022/09/17 02:16:31;;;;;;;1.52;0.40;;;;;;;11.78;87.05;99051.72;2066788;28;20053;-76
2022/09/17 02:17:49;;;;;;;1.05;0.30;;;;;;;11.77;87.44;99038.59;2072379;28;20070;-75
2022/09/17 02:18:53;;;;;;;1.13;0.30;;;;;;;11.80;87.44;99046.81;2073128;28;20393;-76
2022/09/17 02:19:57;;;;;;;1.50;0.57;;;;;;;11.83;87.03;99048.06;2064318;28;20041;-77
2022/09/17 02:21:14;;;;;;;1.55;0.50;;;;;;;11.75;87.70;99057.75;2065185;28;20038;-79
2022/09/17 02:22:33;;;;;;;0.82;0.38;;;;;;;11.68;87.35;99048.59;2078686;28;20040;-75
2022/09/17 02:23:50;;;;;;;0.57;0.40;;;;;;;11.77;87.42;99043.97;2066571;28;20053;-79
2022/09/17 02:24:57;;;;;;;1.00;0.45;;;;;;;11.70;87.70;99044.47;2064404;28;20153;-77
2022/09/17 02:26:08;;;;;;;1.42;0.38;;;;;;;11.61;87.58;99046.41;2056997;28;20411;-75
2022/09/17 02:27:33;;;;;;;1.13;0.30;;;;;;;11.60;87.78;99047.50;2058514;28;20422;-78
2022/09/17 02:28:54;;;;;;;1.17;0.80;;;;;;;11.64;87.73;99043.06;2067493;28;20045;-77
2022/09/17 02:30:00;;;;;;;0.57;0.30;;;;;;;11.64;88.26;99048.47;2072161;28;20065;-77
2022/09/17 02:31:02;;;;;;;1.13;0.30;;;;;;;11.67;88.30;99039.75;2072327;28;20049;-77
2022/09/17 02:32:04;;;;;;;0.80;0.30;;;;;;;11.69;88.18;99042.88;2063838;28;20042;-77
2022/09/17 02:33:10;;;;;;;3.60;0.52;;;;;;;11.69;87.96;99042.88;2057097;28;20052;-77
2022/09/17 02:34:15;;;;;;;0.50;0.32;;;;;;;11.73;88.10;99043.84;2057084;28;20052;-77
2022/09/17 02:35:20;;;;;;;2.88;0.40;;;;;;;11.77;88.09;99044.75;2064326;28;20041;-78
2022/09/17 02:36:25;;;;;;;0.75;0.43;;;;;;;11.79;88.09;99036.34;2067646;28;20041;-77
2022/09/17 02:37:29;;;;;;;1.05;0.35;;;;;;;11.80;87.91;99046.03;2064759;28;20038;-77
2022/09/17 02:38:33;;;;;;;1.75;0.50;;;;;;;11.77;87.92;99039.38;2064293;28;20049;-77
2022/09/17 02:39:38;;;;;;;5.50;1.58;;;;;;;11.74;88.35;99050.78;2056674;28;20039;-78
2022/09/17 02:40:51;;;;;;;2.28;0.30;;;;;;;11.79;87.86;99041.72;2072431;28;20098;-78
2022/09/17 02:42:05;;;;;;;1.85;0.32;;;;;;;11.83;87.90;99048.84;2080668;28;20041;-77
2022/09/17 02:43:33;;;;;;;4.07;0.88;;;;;;;11.85;87.85;99050.47;2072260;28;20049;-77
2022/09/17 02:44:49;;;;;;;1.33;0.43;;;;;;;11.74;88.01;99055.41;2064151;28;20031;-78
2022/09/17 02:46:09;;;;;;;1.30;0.30;;;;;;;11.81;87.89;99047.59;2060908;28;20137;-81
2022/09/17 02:48:03;;;;;;;0.88;0.40;;;;;;;11.80;87.86;99049.50;2066516;28;20062;-80
2022/09/17 02:49:04;;;;;;;2.17;0.40;;;;;;;11.82;87.98;99051.84;2054520;28;20055;-80
2022/09/17 02:50:16;;;;;;;1.23;0.40;;;;;;;11.83;87.68;99042.69;2047825;29;20377;-79
2022/09/17 02:51:38;;;;;;;1.35;0.55;;;;;;;11.83;87.75;99043.47;2050313;28;20050;-77
2022/09/17 02:53:10;;;;;;;1.52;0.50;;;;;;;11.87;87.39;99050.94;2063984;28;20058;-77
2022/09/17 02:54:28;;;;;;;1.88;0.50;;;;;;;11.85;87.51;99042.38;2059953;28;20073;-77
2022/09/17 02:55:40;;;;;;;1.20;0.40;;;;;;;11.81;87.69;99052.97;2060372;28;20054;-77
2022/09/17 02:57:10;;;;;;;0.75;0.40;;;;;;;11.82;87.33;99047.28;2072303;28;20131;-77
2022/09/17 02:58:36;;;;;;;1.10;0.50;;;;;;;11.83;87.63;99051.56;2076238;28;20042;-77
2022/09/17 03:00:02;;;;;;;3.60;0.45;;;;;;;11.87;87.53;99050.94;2080340;28;20046;-77
2022/09/17 03:01:20;;;;;;;1.50;0.50;;;;;;;11.84;87.46;99052.34;2079909;28;20041;-75
2022/09/17 03:02:32;;;;;;;0.95;0.68;;;;;;;11.76;87.42;99051.28;2079116;28;20049;-75
2022/09/17 03:03:36;;;;;;;;;;;;;;;11.78;87.41;99056.31;2072335;28;20049;-75
2022/09/17 03:04:39;;;;;;;2.05;0.40;;;;;;;11.78;87.19;99059.78;2064376;28;19921;-76
2022/09/17 03:05:43;;;;;;;2.47;0.60;;;;;;;11.80;87.21;99054.88;2064164;28;20065;-76
2022/09/17 03:06:46;;;;;;;2.10;0.60;;;;;;;11.70;87.62;99055.25;2072335;28;20040;-76
2022/09/17 03:08:11;;;;;;;0.73;0.45;;;;;;;11.75;87.36;99046.97;2080140;28;20040;-76
2022/09/17 03:09:19;;;;;;;1.50;0.60;;;;;;;11.77;87.22;99050.16;2069473;28;20053;-76
2022/09/17 03:10:32;;;;;;;2.17;0.52;;;;;;;11.80;87.17;99046.81;2073092;28;20049;-76
2022/09/17 03:12:13;;;;;;;0.47;0.47;;;;;;;11.81;87.30;99048.38;2072135;28;20605;-76
2022/09/17 03:13:38;;;;;;;1.20;0.60;;;;;;;11.85;87.21;99047.75;2069166;28;20057;-76
2022/09/17 03:14:39;;;;;;;1.23;0.60;;;;;;;11.81;86.82;99045.69;2067056;28;20866;-77
2022/09/17 03:15:44;;;;;;;1.02;0.60;;;;;;;11.77;87.00;99047.47;2072094;28;20034;-76
2022/09/17 03:17:08;;;;;;;1.70;0.47;;;;;;;11.77;86.84;99050.16;2071939;28;20038;-76
2022/09/17 03:18:30;;;;;;;0.70;0.40;;;;;;;11.79;86.93;99047.94;2072027;28;20041;-78
2022/09/17 03:19:35;;;;;;;2.72;0.73;;;;;;;11.79;86.94;99047.94;2072670;28;20474;-77
2022/09/17 03:20:38;;;;;;;1.77;0.40;;;;;;;11.78;86.91;99054.41;2072054;28;20042;-78
2022/09/17 03:22:19;;;;;;;2.90;0.60;;;;;;;11.79;86.77;99056.00;2064060;28;20986;-77
2022/09/17 03:24:02;;;;;;;1.10;0.60;;;;;;;11.80;86.58;99048.72;2072206;28;20054;-82
2022/09/17 03:25:07;;;;;;;2.15;0.90;;;;;;;11.79;86.72;99053.31;2072475;28;20133;-82
2022/09/17 03:26:10;;;;;;;0.95;0.50;;;;;;;11.74;86.78;99047.31;2071994;28;20045;-81
2022/09/17 03:27:32;;;;;;;3.25;0.80;;;;;;;11.77;86.31;99049.38;2055878;28;20066;-82
2022/09/17 03:28:57;;;;;;;1.02;0.55;;;;;;;11.73;86.50;99049.22;2055691;28;20422;-81
2022/09/17 03:30:05;;;;;;;1.63;0.60;;;;;;;11.71;86.20;99048.75;2062201;28;20113;-77
2022/09/17 03:31:13;;;;;;;0.80;0.57;;;;;;;11.73;86.53;99053.81;2058820;28;20653;-78
2022/09/17 03:32:57;;;;;;;1.17;0.50;;;;;;;11.71;86.27;99046.06;2064578;28;20049;-78
2022/09/17 03:34:06;;;;;;;1.55;0.50;;;;;;;11.70;86.44;99055.25;2061579;28;20042;-77
2022/09/17 03:35:10;;;;;;;0.80;0.50;;;;;;;11.74;86.35;99056.19;2063618;28;20050;-78
2022/09/17 03:36:12;;;;;;;2.58;0.52;;;;;;;11.73;86.37;99046.53;2058427;28;20153;-78
2022/09/17 03:37:56;;;;;;;0.88;0.47;;;;;;;11.75;86.42;99049.66;2064338;28;20057;-79
2022/09/17 03:39:06;;;;;;;1.08;0.60;;;;;;;11.72;86.27;99044.16;2071368;28;20065;-78
2022/09/17 03:40:11;;;;;;;1.10;0.60;;;;;;;11.72;85.67;99044.94;2072068;28;20060;-81
2022/09/17 03:41:54;;;;;;;2.30;0.50;;;;;;;11.69;85.76;99047.47;2072616;28;20046;-81
2022/09/17 03:43:38;;;;;;;2.15;0.60;;;;;;;11.63;85.91;99049.56;2074352;28;20052;-79
2022/09/17 03:44:40;;;;;;;0.75;0.40;;;;;;;11.57;86.18;99048.97;2055684;28;20049;-79
2022/09/17 03:45:42;;;;;;;5.15;0.68;;;;;;;11.58;86.00;99047.06;2055964;28;20031;-79
2022/09/17 03:47:24;;;;;;;1.48;0.60;;;;;;;11.57;85.85;99048.97;2080028;28;20049;-79
2022/09/17 03:49:09;;;;;;;2.40;0.63;;;;;;;11.54;86.16;99046.13;2074430;28;20064;-79
2022/09/17 03:50:14;;;;;;;0.63;0.50;;;;;;;11.52;85.84;99043.75;2075123;28;20503;-78
2022/09/17 03:51:17;;;;;;;1.27;0.50;;;;;;;11.51;85.73;99042.16;2063693;28;20126;-78
2022/09/17 03:52:20;;;;;;;1.70;0.60;;;;;;;11.41;85.79;99049.78;2056059;28;20049;-79
2022/09/17 03:53:27;;;;;;;1.13;0.50;;;;;;;11.37;85.80;99044.25;2056111;28;20047;-79
2022/09/17 03:54:35;;;;;;;1.33;0.50;;;;;;;11.33;86.20;99046.81;2064355;28;20042;-79
2022/09/17 03:55:40;;;;;;;2.60;0.60;;;;;;;11.31;86.09;99045.53;2063866;28;20057;-79
2022/09/17 03:56:45;;;;;;;0.77;0.50;;;;;;;11.33;86.09;99049.50;2056812;28;20050;-79
2022/09/17 03:57:48;;;;;;;1.85;0.60;;;;;;;11.36;86.16;99040.00;2068204;28;20060;-78
2022/09/17 03:58:58;;;;;;;0.95;0.60;;;;;;;11.40;86.11;99045.53;2063140;28;20379;-79
2022/09/17 04:00:03;;;;;;;0.55;0.45;;;;;;;11.41;85.85;99045.19;2056830;28;20050;-79
2022/09/17 04:01:15;;;;;;;0.90;0.50;;;;;;;11.40;86.25;99046.31;2057109;28;20069;-79
2022/09/17 04:02:18;;;;;;;2.90;0.60;;;;;;;11.31;86.07;99049.00;2063943;28;20086;-79
2022/09/17 04:03:20;;;;;;;1.35;0.52;;;;;;;11.32;85.97;99042.53;2063599;28;20065;-78
2022/09/17 04:04:24;;;;;;;3.08;0.80;;;;;;;11.35;86.09;99044.59;2063856;28;20054;-79
2022/09/17 04:05:29;;;;;;;2.05;0.70;;;;;;;11.31;86.13;99043.63;2063755;28;20065;-79
2022/09/17 04:06:33;;;;;;;1.23;0.57;;;;;;;11.33;86.17;99041.41;2060453;28;20060;-78
2022/09/17 04:07:40;;;;;;;0.70;0.65;;;;;;;11.34;85.95;99042.19;2049145;28;20050;-81
2022/09/17 04:08:42;;;;;;;1.67;0.65;;;;;;;11.34;86.05;99048.38;2056017;28;20038;-78
2022/09/17 04:09:49;;;;;;;1.77;0.77;;;;;;;11.35;86.31;99044.59;2071812;28;20050;-78
2022/09/17 04:10:52;;;;;;;1.45;0.82;;;;;;;11.34;86.48;99048.38;2071578;28;20437;-78
2022/09/17 04:11:56;;;;;;;1.90;0.75;;;;;;;11.36;86.54;99043.47;2071843;28;20053;-78
2022/09/17 04:13:04;;;;;;;3.35;0.75;;;;;;;11.34;86.56;99047.59;2071737;28;20120;-78
2022/09/17 04:14:06;;;;;;;1.33;0.80;;;;;;;11.37;86.31;99047.72;2063774;28;20050;-78
2022/09/17 04:15:10;;;;;;;1.15;0.70;;;;;;;11.38;86.08;99043.16;2064061;28;20038;-77
2022/09/17 04:16:19;;;;;;;1.58;0.50;;;;;;;11.42;86.27;99043.31;2064063;28;20502;-78
2022/09/17 04:17:23;;;;;;;3.40;0.55;;;;;;;11.45;86.43;99042.66;2071697;28;20842;-81
2022/09/17 04:18:31;;;;;;;5.07;0.70;;;;;;;11.45;86.04;99048.06;2071635;28;20045;-79
2022/09/17 04:19:34;;;;;;;0.75;0.57;;;;;;;11.36;86.56;99043.47;2071877;28;20041;-82
2022/09/17 04:20:45;;;;;;;1.00;0.52;;;;;;;11.39;86.27;99050.13;2072351;28;20454;-82
2022/09/17 04:21:54;;;;;;;1.90;1.00;;;;;;;11.40;85.91;99046.31;2071729;28;20141;-80
2022/09/17 04:22:56;;;;;;;5.43;0.90;;;;;;;11.44;86.18;99046.44;2071834;28;20034;-82
2022/09/17 04:24:00;;;;;;;0.88;0.68;;;;;;;11.45;85.89;99048.06;2071473;28;20053;-77
2022/09/17 04:25:05;;;;;;;3.45;0.80;;;;;;;11.45;86.10;99045.34;2063797;28;20305;-81
2022/09/17 04:26:07;;;;;;;2.45;0.80;;;;;;;11.45;85.82;99046.16;2063721;28;20066;-77
2022/09/17 04:27:14;;;;;;;1.40;0.73;;;;;;;11.42;85.60;99048.69;2063955;28;20050;-77
2022/09/17 04:28:16;;;;;;;0.93;0.60;;;;;;;11.44;85.54;99046.44;2063102;28;20046;-77
2022/09/17 04:29:21;;;;;;;1.50;0.63;;;;;;;11.45;85.78;99048.84;2055597;28;20042;-79
2022/09/17 04:30:23;;;;;;;1.13;0.60;;;;;;;11.47;85.74;99048.50;2048036;28;20480;-79
2022/09/17 04:31:28;;;;;;;1.08;0.60;;;;;;;11.48;85.49;99052.78;2059820;28;20042;-81
2022/09/17 04:32:32;;;;;;;1.85;0.88;;;;;;;11.47;85.50;99051.97;2076775;28;20048;-78
2022/09/17 04:33:36;;;;;;;0.93;0.45;;;;;;;11.51;85.78;99046.78;2073258;28;20069;-76
2022/09/17 04:34:41;;;;;;;1.13;0.60;;;;;;;11.53;85.39;99047.22;2070109;28;20050;-76
2022/09/17 04:35:48;;;;;;;2.13;0.68;;;;;;;11.52;85.75;99053.72;2055002;28;20045;-76
2022/09/17 04:36:50;;;;;;;2.95;0.70;;;;;;;11.55;85.51;99048.47;2054723;28;20043;-76
2022/09/17 04:37:56;;;;;;;3.20;0.90;;;;;;;11.56;85.22;99052.75;2062203;28;20046;-77
2022/09/17 04:39:03;;;;;;;1.45;0.65;;;;;;;11.51;85.32;99052.16;2063297;28;20470;-76
2022/09/17 04:40:10;;;;;;;0.98;0.60;;;;;;;11.51;85.62;99046.78;2070659;28;20496;-78
2022/09/17 04:41:13;;;;;;;3.05;0.80;;;;;;;11.53;85.77;99055.28;2070812;28;20417;-78
2022/09/17 04:42:17;;;;;;;2.30;0.60;;;;;;;11.56;85.35;99057.34;2071041;28;20293;-77
2022/09/17 04:43:19;;;;;;;1.92;0.50;;;;;;;11.59;85.20;99054.78;2062217;28;20375;-80
2022/09/17 04:44:32;;;;;;;2.17;0.70;;;;;;;11.64;85.25;99048.47;2055313;28;20057;-77
2022/09/17 04:45:36;;;;;;;0.60;0.45;;;;;;;11.69;84.89;99050.19;2063866;28;20042;-78
2022/09/17 04:46:42;;;;;;;2.90;0.55;;;;;;;11.72;85.02;99054.91;2075552;28;20052;-78
2022/09/17 04:47:46;;;;;;;3.35;0.50;;;;;;;11.71;85.01;99051.44;2071800;28;20049;-76
2022/09/17 04:48:53;;;;;;;3.13;0.70;;;;;;;11.69;84.93;99059.03;2064995;28;20053;-74
2022/09/17 04:49:57;;;;;;;0.90;0.57;;;;;;;11.71;85.06;99048.75;2079685;28;20456;-77
2022/09/17 04:51:04;;;;;;;2.28;0.70;;;;;;;11.77;84.61;99055.53;2071808;28;20049;-78
2022/09/17 04:52:07;;;;;;;1.30;0.70;;;;;;;11.81;84.63;99061.84;2064266;28;20042;-79
2022/09/17 04:53:11;;;;;;;0.98;0.60;;;;;;;11.77;84.62;99069.00;2056256;28;20042;-78
2022/09/17 04:54:16;;;;;;;2.80;0.70;;;;;;;11.83;84.69;99069.63;2056570;28;20047;-78
2022/09/17 04:55:23;;;;;;;1.50;0.55;;;;;;;11.85;84.65;99064.72;2059925;28;20402;-77
2022/09/17 04:56:29;;;;;;;0.93;0.60;;;;;;;11.86;84.33;99068.22;2048412;28;20047;-78
2022/09/17 04:57:36;;;;;;;1.23;0.60;;;;;;;11.89;84.42;99067.56;2044669;28;20499;-78
2022/09/17 04:58:38;;;;;;;1.50;0.63;;;;;;;11.93;84.17;99073.88;2056070;28;20045;-79
2022/09/17 04:59:42;;;;;;;1.08;0.52;;;;;;;11.97;84.08;99067.50;2055778;28;20054;-77
2022/09/17 05:00:47;;;;;;;0.80;0.50;;;;;;;12.00;84.17;99068.78;2056324;28;20038;-77
2022/09/17 05:01:50;;;;;;;1.70;0.40;;;;;;;12.04;83.92;99075.09;2048199;28;20046;-79
2022/09/17 05:02:54;;;;;;;0.77;0.40;;;;;;;12.05;83.91;99072.09;2048061;28;20533;-75
2022/09/17 05:03:58;;;;;;;1.63;0.70;;;;;;;12.16;83.48;99077.88;2071661;28;20444;-74
2022/09/17 05:05:03;;;;;;;1.33;0.50;;;;;;;12.38;83.19;99073.31;2063335;28;20054;-72
2022/09/17 05:06:05;;;;;;;0.70;0.40;;;;;;;12.72;82.45;99078.50;2063305;28;20041;-72
2022/09/17 05:07:10;;;;;;;1.38;0.55;;;;;;;13.09;81.60;99081.38;2047599;28;20054;-78
2022/09/17 05:08:12;;;;;;;1.65;1.13;;;;;;;13.44;81.00;99086.47;2060303;28;20071;-77
2022/09/17 05:09:15;;;;;;;3.15;0.80;;;;;;;13.73;80.01;99084.75;2079694;28;20041;-77
2022/09/17 05:10:25;;;;;;;1.10;0.60;;;;;;;14.05;79.19;99089.25;2079726;28;20174;-76
2022/09/17 05:11:30;;;;;;;0.95;0.73;;;;;;;14.27;78.79;99087.25;2079443;28;20072;-78
2022/09/17 05:12:34;;;;;;;1.83;1.15;;;;;;;14.43;77.64;99088.13;2071857;28;20100;-78
2022/09/17 05:13:36;;;;;;;3.90;1.00;;;;;;;14.61;76.69;99088.69;2055880;28;20054;-76
2022/09/17 05:14:40;;;;;;;4.85;0.98;;;;;;;14.72;76.53;99086.31;2056096;28;20042;-76
2022/09/17 05:15:48;;;;;;;1.02;0.70;;;;;;;14.81;75.79;99081.53;2071804;28;20056;-71
2022/09/17 05:16:52;;;;;;;2.83;0.52;;;;;;;15.00;74.94;99089.03;2072055;28;20034;-73
2022/09/17 05:17:55;;;;;;;1.85;0.65;;;;;;;15.21;74.97;99092.34;2064177;28;20046;-73
2022/09/17 05:18:57;;;;;;;1.15;0.55;;;;;;;15.36;74.39;99088.13;2064487;28;20042;-73
2022/09/17 05:20:03;;;;;;;2.25;0.77;;;;;;;15.33;74.57;99083.41;2063268;28;20041;-74
2022/09/17 05:21:08;;;;;;;1.08;0.50;;;;;;;15.14;74.14;99080.56;2071922;28;20029;-74
2022/09/17 05:22:14;;;;;;;1.23;0.60;;;;;;;15.01;74.34;99087.94;2080229;28;20049;-74
2022/09/17 05:23:19;;;;;;;2.90;0.57;;;;;;;15.05;74.24;99081.47;2079339;28;20029;-72
2022/09/17 05:24:21;;;;;;;4.05;0.70;;;;;;;15.40;73.36;99086.28;2056777;28;20043;-74
2022/09/17 05:25:24;;;;;;;2.90;0.73;;;;;;;15.60;72.25;99078.28;2057110;28;20368;-75
2022/09/17 05:26:30;;;;;;;1.75;0.68;;;;;;;15.97;71.85;99086.97;2064415;28;20037;-74
2022/09/17 05:27:35;;;;;;;1.65;0.60;;;;;;;16.28;70.69;99080.75;2065252;28;20049;-75
2022/09/17 05:28:40;;;;;;;0.90;0.60;;;;;;;16.61;69.87;99082.25;2064398;28;20045;-75
2022/09/17 05:29:44;;;;;;;1.00;0.63;;;;;;;16.96;69.11;99081.44;2065292;28;20045;-74
2022/09/17 05:30:48;;;;;;;1.38;0.63;;;;;;;17.22;68.14;99072.66;2080353;28;20117;-75
2022/09/17 05:31:54;;;;;;;1.25;0.70;;;;;;;17.25;67.44;99071.94;2072856;28;20033;-75
2022/09/17 05:33:05;;;;;;;1.20;0.65;;;;;;;17.21;66.98;99068.38;2066329;28;20050;-75